createdAt,value
2019-05-25T00:00:22.195Z,11.78
2019-05-25T00:04:24.092Z,11.88
2019-05-25T00:08:26.021Z,11.73
2019-05-25T00:12:28.154Z,11.57
2019-05-25T00:16:30.453Z,11.49
2019-05-25T00:20:32.423Z,11.42
2019-05-25T00:24:34.415Z,11.38
2019-05-25T00:28:36.396Z,11.30
2019-05-25T00:32:38.307Z,11.24
2019-05-25T00:36:42.953Z,11.20
2019-05-25T00:40:44.871Z,11.14
2019-05-25T00:44:46.795Z,11.11
2019-05-25T00:48:48.700Z,11.05
2019-05-25T00:52:50.692Z,11.02
2019-05-25T00:56:52.598Z,11.01
2019-05-25T01:00:54.546Z,10.96
2019-05-25T01:04:56.446Z,10.91
2019-05-25T01:08:58.362Z,10.87
2019-05-25T01:13:00.278Z,10.81
2019-05-25T01:17:03.554Z,10.73
2019-05-25T01:21:05.625Z,10.67
2019-05-25T01:25:08.958Z,10.62
2019-05-25T01:29:10.891Z,10.54
2019-05-25T01:33:12.944Z,10.20
2019-05-25T01:37:14.863Z,10.47
2019-05-25T01:41:17.752Z,10.37
2019-05-25T01:45:19.722Z,10.28
2019-05-25T01:49:21.645Z,10.22
2019-05-25T01:53:23.561Z,10.19
2019-05-25T01:57:25.493Z,10.19
2019-05-25T02:01:27.398Z,10.13
2019-05-25T02:05:29.342Z,10.06
2019-05-25T02:09:32.086Z,9.98
2019-05-25T02:13:34.069Z,9.93
2019-05-25T02:17:35.936Z,9.87
2019-05-25T02:21:39.628Z,9.88
2019-05-25T02:25:41.593Z,9.78
2019-05-25T02:29:43.507Z,9.71
2019-05-25T02:33:45.405Z,9.69
2019-05-25T02:37:47.326Z,9.78
2019-05-25T02:41:49.215Z,9.69
2019-05-25T02:45:51.291Z,9.53
2019-05-25T02:49:53.238Z,9.42
2019-05-25T02:53:55.131Z,9.39
2019-05-25T02:57:57.093Z,9.41
2019-05-25T03:01:59.587Z,9.38
2019-05-25T03:06:04.967Z,9.32
2019-05-25T03:10:07.817Z,9.31
2019-05-25T03:14:09.783Z,9.29
2019-05-25T03:18:12.475Z,9.14
2019-05-25T03:22:14.374Z,9.22
2019-05-25T03:26:16.265Z,9.22
2019-05-25T03:30:25.572Z,9.23
2019-05-25T03:34:27.491Z,9.23
2019-05-25T03:38:29.375Z,9.25
2019-05-25T03:42:31.279Z,9.27
2019-05-25T03:46:33.163Z,9.26
2019-05-25T03:50:35.159Z,9.28
2019-05-25T03:54:37.049Z,9.32
2019-05-25T03:58:38.944Z,9.40
2019-05-25T04:02:40.881Z,9.65
2019-05-25T04:06:42.780Z,9.65
2019-05-25T04:10:44.695Z,9.61
2019-05-25T04:14:46.591Z,9.60
2019-05-25T04:18:48.855Z,9.61
2019-05-25T04:22:50.762Z,9.78
2019-05-25T04:26:52.644Z,9.77
2019-05-25T04:30:54.554Z,9.78
2019-05-25T04:34:56.454Z,9.82
2019-05-25T04:38:58.346Z,9.78
2019-05-25T04:43:00.257Z,9.87
2019-05-25T04:47:03.286Z,9.96
2019-05-25T04:51:05.182Z,10.07
2019-05-25T04:59:15.161Z,10.24
2019-05-25T05:03:17.128Z,10.37
2019-05-25T05:07:19.051Z,10.58
2019-05-25T05:11:21.050Z,10.83
2019-05-25T05:15:23.040Z,11.06
2019-05-25T05:19:24.959Z,11.23
2019-05-25T05:23:26.863Z,11.38
2019-05-25T05:27:29.058Z,11.55
2019-05-25T05:31:30.976Z,11.79
2019-05-25T05:35:38.595Z,11.92
2019-05-25T05:39:38.483Z,12.02
2019-05-25T05:43:43.979Z,12.22
2019-05-25T05:47:48.326Z,12.37
2019-05-25T05:51:52.649Z,12.51
2019-05-25T05:55:54.570Z,12.75
2019-05-25T05:59:56.487Z,13.00
2019-05-25T06:03:58.402Z,13.21
2019-05-25T06:08:00.318Z,13.42
2019-05-25T06:12:03.496Z,13.72
2019-05-25T06:16:05.475Z,14.01
2019-05-25T06:20:09.497Z,14.27
2019-05-25T06:24:12.639Z,14.58
2019-05-25T06:28:18.215Z,14.85
2019-05-25T06:32:18.289Z,15.00
2019-05-25T06:36:20.233Z,15.14
2019-05-25T06:40:22.559Z,15.29
2019-05-25T06:44:25.503Z,15.61
2019-05-25T06:48:27.422Z,15.81
2019-05-25T06:52:29.396Z,16.01
2019-05-25T06:56:31.309Z,16.37
2019-05-25T07:00:34.168Z,16.73
2019-05-25T07:04:36.074Z,16.50
2019-05-25T07:08:38.072Z,17.02
2019-05-25T07:12:40.004Z,17.32
2019-05-25T07:16:44.719Z,17.59
2019-05-25T07:20:46.624Z,17.82
2019-05-25T07:24:48.551Z,18.09
2019-05-25T07:28:50.487Z,18.30
2019-05-25T07:32:52.579Z,18.53
2019-05-25T07:36:54.475Z,18.72
2019-05-25T07:40:56.411Z,18.97
2019-05-25T07:44:58.385Z,19.04
2019-05-25T07:49:00.320Z,19.23
2019-05-25T07:53:02.216Z,19.36
2019-05-25T07:57:07.128Z,19.56
2019-05-25T08:01:09.032Z,19.81
2019-05-25T08:05:11.237Z,19.98
2019-05-25T08:09:13.135Z,20.12
2019-05-25T08:13:15.049Z,20.17
2019-05-25T08:17:16.989Z,20.38
2019-05-25T08:21:18.897Z,20.53
2019-05-25T08:25:21.101Z,20.52
2019-05-25T08:29:23.013Z,20.54
2019-05-25T08:33:24.925Z,20.78
2019-05-25T08:37:26.834Z,20.93
2019-05-25T08:41:28.742Z,20.98
2019-05-25T08:45:30.732Z,21.14
2019-05-25T08:49:32.635Z,21.04
2019-05-25T08:53:41.526Z,21.13
2019-05-25T08:57:38.163Z,21.21
2019-05-25T09:01:40.080Z,21.38
2019-05-25T09:05:42.143Z,21.59
2019-05-25T09:09:44.051Z,21.88
2019-05-25T09:13:46.009Z,21.84
2019-05-25T09:17:47.908Z,21.97
2019-05-25T09:22:02.205Z,22.06
2019-05-25T09:25:53.502Z,22.23
2019-05-25T09:29:55.420Z,22.08
2019-05-25T09:33:57.321Z,21.69
2019-05-25T09:37:59.233Z,21.74
2019-05-25T09:42:02.780Z,21.78
2019-05-25T09:46:05.967Z,21.62
2019-05-25T09:50:08.374Z,21.82
2019-05-25T09:54:10.366Z,21.67
2019-05-25T09:58:12.866Z,21.95
2019-05-25T10:02:14.774Z,22.15
2019-05-25T10:06:17.675Z,22.31
2019-05-25T10:10:20.061Z,22.75
2019-05-25T10:14:21.984Z,23.12
2019-05-25T10:18:23.916Z,23.13
2019-05-25T10:22:25.868Z,22.71
2019-05-25T10:26:27.790Z,22.26
2019-05-25T10:30:29.749Z,22.60
2019-05-25T10:34:31.653Z,23.18
2019-05-25T10:38:33.844Z,23.57
2019-05-25T10:42:35.829Z,23.75
2019-05-25T10:46:37.758Z,23.95
2019-05-25T10:50:39.699Z,24.48
2019-05-25T10:54:41.597Z,24.76
2019-05-25T10:58:43.532Z,25.42
2019-05-25T11:02:45.424Z,24.68
2019-05-25T11:06:47.350Z,24.66
2019-05-25T11:10:49.261Z,24.39
2019-05-25T11:14:51.196Z,23.48
2019-05-25T11:18:53.236Z,22.95
2019-05-25T11:22:55.216Z,22.82
2019-05-25T11:26:59.647Z,23.41
2019-05-25T11:31:00.813Z,24.31
2019-05-25T11:35:02.724Z,24.41
2019-05-25T11:39:07.750Z,24.28
2019-05-25T11:43:09.681Z,23.70
2019-05-25T11:47:12.850Z,23.76
2019-05-25T11:51:14.752Z,23.91
2019-05-25T11:55:17.952Z,23.62
2019-05-25T11:59:19.838Z,23.44
2019-05-25T12:03:21.751Z,23.55
2019-05-25T12:07:24.641Z,23.05
2019-05-25T12:11:26.536Z,22.85
2019-05-25T12:15:28.449Z,22.95
2019-05-25T12:19:30.376Z,22.92
2019-05-25T12:23:33.617Z,22.92
2019-05-25T12:27:35.526Z,22.84
2019-05-25T12:31:37.447Z,22.13
2019-05-25T12:35:40.957Z,21.98
2019-05-25T12:39:42.855Z,21.92
2019-05-25T12:43:44.777Z,21.82
2019-05-25T12:47:46.677Z,21.77
2019-05-25T12:51:48.592Z,22.45
2019-05-25T12:55:50.512Z,23.82
2019-05-25T12:59:52.424Z,24.73
2019-05-25T13:03:54.327Z,25.26
2019-05-25T13:07:56.241Z,25.20
2019-05-25T13:11:58.230Z,25.52
2019-05-25T13:16:00.165Z,26.01
2019-05-25T13:20:02.900Z,26.23
2019-05-25T13:24:04.869Z,26.60
2019-05-25T13:28:07.306Z,26.95
2019-05-25T13:32:09.223Z,25.97
2019-05-25T13:36:11.142Z,25.75
2019-05-25T13:40:13.484Z,25.71
2019-05-25T13:44:15.413Z,25.10
2019-05-25T13:48:17.311Z,25.03
2019-05-25T13:52:19.315Z,25.20
2019-05-25T13:56:21.245Z,25.75
2019-05-25T14:00:23.218Z,25.53
2019-05-25T14:04:25.132Z,25.14
2019-05-25T14:08:27.057Z,25.08
2019-05-25T14:12:29.050Z,25.46
2019-05-25T14:16:30.968Z,25.63
2019-05-25T14:20:32.869Z,25.39
2019-05-25T14:24:35.638Z,24.27
2019-05-25T14:28:39.111Z,23.79
2019-05-25T14:32:41.024Z,24.10
2019-05-25T14:36:42.943Z,24.15
2019-05-25T14:40:44.908Z,23.96
2019-05-25T14:44:46.892Z,23.73
2019-05-25T14:48:48.808Z,23.39
2019-05-25T14:52:50.823Z,22.83
2019-05-25T14:56:52.823Z,22.66
2019-05-25T15:00:54.843Z,22.18
2019-05-25T15:04:56.754Z,21.85
2019-05-25T15:08:58.654Z,21.31
2019-05-25T15:13:00.612Z,20.99
2019-05-25T15:17:02.522Z,20.75
2019-05-25T15:21:04.424Z,20.45
2019-05-25T15:25:12.208Z,20.35
2019-05-25T15:29:14.308Z,19.98
2019-05-25T15:33:16.277Z,19.80
2019-05-25T15:37:18.198Z,19.53
2019-05-25T15:41:20.161Z,19.51
2019-05-25T15:45:23.027Z,19.54
2019-05-25T15:49:32.961Z,19.48
2019-05-25T15:53:29.254Z,19.53
2019-05-25T15:57:31.164Z,19.50
2019-05-25T16:01:33.687Z,19.56
2019-05-25T16:05:35.593Z,19.57
2019-05-25T16:09:37.514Z,19.52
2019-05-25T16:13:39.446Z,19.47
2019-05-25T16:17:41.615Z,19.29
2019-05-25T16:21:51.135Z,19.02
2019-05-25T16:25:53.030Z,18.80
2019-05-25T16:29:54.947Z,18.53
2019-05-25T16:33:56.869Z,18.47
2019-05-25T16:37:58.867Z,18.39
2019-05-25T16:42:01.671Z,18.35
2019-05-25T16:46:03.565Z,18.37
2019-05-25T16:50:30.492Z,18.33
2019-05-25T16:54:32.406Z,18.33
2019-05-25T16:58:34.391Z,18.34
2019-05-25T17:02:37.342Z,17.87
2019-05-25T17:06:39.247Z,17.44
2019-05-25T17:10:41.174Z,17.34
2019-05-25T17:14:43.090Z,17.07
2019-05-25T17:18:46.142Z,16.99
2019-05-25T17:22:48.210Z,16.92
2019-05-25T17:26:50.132Z,16.82
2019-05-25T17:30:53.033Z,16.80
2019-05-25T17:34:54.941Z,16.58
2019-05-25T17:38:56.843Z,16.07
2019-05-25T17:42:58.757Z,15.99
2019-05-25T17:47:00.674Z,15.62
2019-05-25T17:51:02.575Z,15.28
2019-05-25T17:55:07.009Z,15.42
2019-05-25T17:59:08.922Z,15.32
2019-05-25T18:03:11.126Z,15.54
2019-05-25T18:07:13.303Z,15.32
2019-05-25T18:11:15.377Z,15.33
2019-05-25T18:15:17.558Z,15.36
2019-05-25T18:19:19.460Z,15.34
2019-05-25T18:23:22.537Z,15.32
2019-05-25T18:27:24.450Z,15.42
2019-05-25T18:31:26.371Z,15.68
2019-05-25T18:35:28.289Z,15.65
2019-05-25T18:39:30.231Z,15.62
2019-05-25T18:43:32.150Z,15.35
2019-05-25T18:47:34.070Z,15.32
2019-05-25T18:51:35.957Z,15.28
2019-05-25T18:55:37.879Z,15.14
2019-05-25T18:59:39.792Z,15.11
2019-05-25T19:03:41.714Z,14.86
2019-05-25T19:07:43.645Z,14.84
2019-05-25T19:11:45.560Z,14.73
2019-05-25T19:15:47.469Z,14.67
2019-05-25T19:19:49.385Z,14.69
2019-05-25T19:23:51.318Z,14.76
2019-05-25T19:27:53.244Z,14.82
2019-05-25T19:31:55.140Z,14.78
2019-05-25T19:35:57.263Z,14.85
2019-05-25T19:39:59.191Z,14.78
2019-05-25T19:44:01.122Z,14.78
2019-05-25T19:48:03.041Z,14.70
2019-05-25T19:52:05.708Z,14.45
2019-05-25T19:56:07.996Z,14.33
2019-05-25T20:00:11.739Z,14.28
2019-05-25T20:04:13.639Z,14.25
2019-05-25T20:08:15.567Z,14.33
2019-05-25T20:12:17.464Z,14.28
2019-05-25T20:16:19.398Z,14.20
2019-05-25T20:20:21.722Z,14.12
2019-05-25T20:24:23.676Z,14.08
2019-05-25T20:28:25.601Z,14.15
2019-05-25T20:32:27.512Z,14.03
2019-05-25T20:36:29.422Z,13.93
2019-05-25T20:40:31.328Z,13.92
2019-05-25T20:44:33.251Z,13.92
2019-05-25T20:48:35.154Z,13.52
2019-05-25T20:52:37.100Z,13.84
2019-05-25T20:56:39.010Z,13.65
2019-05-25T21:00:41.764Z,13.72
2019-05-25T21:04:43.727Z,13.78
2019-05-25T21:08:45.698Z,13.72
2019-05-25T21:12:48.473Z,13.53
2019-05-25T21:16:50.846Z,13.43
2019-05-25T21:20:56.786Z,13.52
2019-05-25T21:25:05.283Z,13.45
2019-05-25T21:29:02.341Z,13.23
2019-05-25T21:33:04.249Z,13.11
2019-05-25T21:37:06.325Z,12.99
2019-05-25T21:41:08.256Z,13.03
2019-05-25T21:45:10.578Z,12.95
2019-05-25T21:49:13.554Z,12.93
2019-05-25T21:53:15.489Z,12.98
2019-05-25T21:57:17.386Z,12.76
2019-05-25T22:01:19.564Z,12.59
2019-05-25T22:05:21.992Z,12.53
2019-05-25T22:09:23.913Z,12.54
2019-05-25T22:13:28.900Z,12.59
2019-05-25T22:17:30.445Z,12.51
2019-05-25T22:21:32.392Z,12.44
2019-05-25T22:25:34.390Z,12.37
2019-05-25T22:29:36.329Z,12.29
2019-05-25T22:33:38.272Z,12.22
2019-05-25T22:37:40.218Z,12.10
2019-05-25T22:41:43.216Z,12.17
2019-05-25T22:45:45.171Z,12.00
2019-05-25T22:49:47.141Z,12.02
2019-05-25T22:53:49.130Z,11.86
2019-05-25T22:57:51.065Z,11.70
2019-05-25T23:01:53.026Z,11.68
2019-05-25T23:05:54.952Z,11.73
2019-05-25T23:09:56.900Z,11.72
2019-05-25T23:13:58.823Z,11.85
2019-05-25T23:18:00.770Z,11.81
2019-05-25T23:22:02.730Z,11.77
2019-05-25T23:26:04.754Z,11.81
2019-05-25T23:30:08.905Z,11.99
2019-05-25T23:34:10.853Z,12.02
2019-05-25T23:38:13.461Z,12.06
2019-05-25T23:42:15.383Z,12.07
2019-05-25T23:46:17.365Z,11.89
2019-05-25T23:50:19.536Z,11.99
2019-05-25T23:54:21.471Z,11.97
2019-05-25T23:58:23.438Z,11.99
